sensor_id;sensor_type;location;lat;lon;timestamp;pressure;altitude;pressure_sealevel;temperature;humidity
37200;BME280;23096;50.892;16.746;2024-03-02T00:00:23;98496.14;;;9.51;80.42
37200;BME280;23096;50.892;16.746;2024-03-02T00:02:51;98494.85;;;9.49;80.34
37200;BME280;23096;50.892;16.746;2024-03-02T00:05:18;98492.37;;;9.47;80.33
37200;BME280;23096;50.892;16.746;2024-03-02T00:07:47;98492.40;;;9.46;80.42
37200;BME280;23096;50.892;16.746;2024-03-02T00:10:16;98493.63;;;9.45;80.48
37200;BME280;23096;50.892;16.746;2024-03-02T00:12:47;98493.14;;;9.45;80.54
37200;BME280;23096;50.892;16.746;2024-03-02T00:18:00;98496.07;;;9.44;80.54
37200;BME280;23096;50.892;16.746;2024-03-02T00:20:26;98493.05;;;9.43;80.52
37200;BME280;23096;50.892;16.746;2024-03-02T00:23:03;98494.92;;;9.43;80.54
37200;BME280;23096;50.892;16.746;2024-03-02T00:25:49;98496.00;;;9.42;80.58
37200;BME280;23096;50.892;16.746;2024-03-02T00:28:27;98495.98;;;9.42;80.71
37200;BME280;23096;50.892;16.746;2024-03-02T00:30:58;98493.27;;;9.41;80.67
37200;BME280;23096;50.892;16.746;2024-03-02T00:33:27;98489.81;;;9.42;80.75
37200;BME280;23096;50.892;16.746;2024-03-02T00:35:55;98494.31;;;9.40;80.78
37200;BME280;23096;50.892;16.746;2024-03-02T00:38:21;98493.63;;;9.40;80.81
37200;BME280;23096;50.892;16.746;2024-03-02T00:40:47;98489.36;;;9.40;80.79
37200;BME280;23096;50.892;16.746;2024-03-02T00:46:03;98488.98;;;9.41;80.91
37200;BME280;23096;50.892;16.746;2024-03-02T00:48:29;98491.00;;;9.42;80.87
37200;BME280;23096;50.892;16.746;2024-03-02T00:50:56;98490.62;;;9.43;81.03
37200;BME280;23096;50.892;16.746;2024-03-02T00:53:25;98491.27;;;9.44;81.01
37200;BME280;23096;50.892;16.746;2024-03-02T00:55:52;98493.32;;;9.44;81.02
37200;BME280;23096;50.892;16.746;2024-03-02T00:58:17;98487.58;;;9.42;80.88
37200;BME280;23096;50.892;16.746;2024-03-02T01:00:43;98483.71;;;9.40;80.96
37200;BME280;23096;50.892;16.746;2024-03-02T01:03:09;98482.67;;;9.40;80.96
37200;BME280;23096;50.892;16.746;2024-03-02T01:05:36;98481.01;;;9.39;80.93
37200;BME280;23096;50.892;16.746;2024-03-02T01:08:02;98474.88;;;9.38;81.02
37200;BME280;23096;50.892;16.746;2024-03-02T01:10:27;98474.02;;;9.38;81.00
37200;BME280;23096;50.892;16.746;2024-03-02T01:12:53;98476.64;;;9.37;80.99
37200;BME280;23096;50.892;16.746;2024-03-02T01:15:19;98476.21;;;9.34;81.04
37200;BME280;23096;50.892;16.746;2024-03-02T01:17:44;98478.61;;;9.34;81.05
37200;BME280;23096;50.892;16.746;2024-03-02T01:20:10;98476.46;;;9.32;81.00
37200;BME280;23096;50.892;16.746;2024-03-02T01:22:36;98473.44;;;9.31;81.06
37200;BME280;23096;50.892;16.746;2024-03-02T01:25:02;98473.42;;;9.32;81.16
37200;BME280;23096;50.892;16.746;2024-03-02T01:27:28;98474.27;;;9.32;81.18
37200;BME280;23096;50.892;16.746;2024-03-02T01:29:53;98474.96;;;9.31;81.12
37200;BME280;23096;50.892;16.746;2024-03-02T01:32:20;98474.45;;;9.27;81.04
37200;BME280;23096;50.892;16.746;2024-03-02T01:34:45;98472.91;;;9.22;81.00
37200;BME280;23096;50.892;16.746;2024-03-02T01:37:11;98476.04;;;9.17;80.99
37200;BME280;23096;50.892;16.746;2024-03-02T01:39:36;98479.54;;;9.15;81.11
37200;BME280;23096;50.892;16.746;2024-03-02T01:42:02;98477.80;;;9.11;81.03
37200;BME280;23096;50.892;16.746;2024-03-02T01:44:27;98477.92;;;9.08;81.06
37200;BME280;23096;50.892;16.746;2024-03-02T01:46:53;98482.44;;;9.07;81.23
37200;BME280;23096;50.892;16.746;2024-03-02T01:49:19;98480.41;;;9.06;81.08
37200;BME280;23096;50.892;16.746;2024-03-02T01:51:44;98480.14;;;9.04;81.24
37200;BME280;23096;50.892;16.746;2024-03-02T01:54:10;98477.46;;;9.01;81.20
37200;BME280;23096;50.892;16.746;2024-03-02T01:56:35;98478.69;;;9.01;81.24
37200;BME280;23096;50.892;16.746;2024-03-02T01:59:01;98478.48;;;9.02;81.34
37200;BME280;23096;50.892;16.746;2024-03-02T02:01:27;98474.16;;;9.03;81.38
37200;BME280;23096;50.892;16.746;2024-03-02T02:03:52;98472.55;;;9.05;81.41
37200;BME280;23096;50.892;16.746;2024-03-02T02:06:19;98471.64;;;9.06;81.35
37200;BME280;23096;50.892;16.746;2024-03-02T02:08:44;98470.27;;;9.07;81.34
37200;BME280;23096;50.892;16.746;2024-03-02T02:11:16;98467.03;;;9.06;81.40
37200;BME280;23096;50.892;16.746;2024-03-02T02:13:42;98468.95;;;9.05;81.27
37200;BME280;23096;50.892;16.746;2024-03-02T02:16:08;98467.48;;;9.03;81.34
37200;BME280;23096;50.892;16.746;2024-03-02T02:18:34;98465.10;;;9.02;81.30
37200;BME280;23096;50.892;16.746;2024-03-02T02:21:00;98463.98;;;9.00;81.32
37200;BME280;23096;50.892;16.746;2024-03-02T02:23:26;98457.84;;;9.00;81.33
37200;BME280;23096;50.892;16.746;2024-03-02T02:25:51;98455.70;;;8.97;81.36
37200;BME280;23096;50.892;16.746;2024-03-02T02:28:16;98452.11;;;8.97;81.30
37200;BME280;23096;50.892;16.746;2024-03-02T02:30:42;98445.72;;;8.94;81.29
37200;BME280;23096;50.892;16.746;2024-03-02T02:33:08;98446.44;;;8.94;81.31
37200;BME280;23096;50.892;16.746;2024-03-02T02:35:34;98442.41;;;8.91;81.24
37200;BME280;23096;50.892;16.746;2024-03-02T02:38:00;98440.81;;;8.88;81.23
37200;BME280;23096;50.892;16.746;2024-03-02T02:40:27;98436.08;;;8.86;81.26
37200;BME280;23096;50.892;16.746;2024-03-02T02:42:56;98433.93;;;8.84;81.23
37200;BME280;23096;50.892;16.746;2024-03-02T02:45:22;98435.43;;;8.81;81.21
37200;BME280;23096;50.892;16.746;2024-03-02T02:47:48;98435.02;;;8.77;81.15
37200;BME280;23096;50.892;16.746;2024-03-02T02:50:13;98435.04;;;8.73;81.20
37200;BME280;23096;50.892;16.746;2024-03-02T02:52:40;98434.27;;;8.71;81.31
37200;BME280;23096;50.892;16.746;2024-03-02T02:55:10;98435.48;;;8.70;81.27
37200;BME280;23096;50.892;16.746;2024-03-02T02:57:37;98440.52;;;8.68;81.23
37200;BME280;23096;50.892;16.746;2024-03-02T03:00:09;98439.63;;;8.64;81.24
37200;BME280;23096;50.892;16.746;2024-03-02T03:02:37;98437.64;;;8.62;81.19
37200;BME280;23096;50.892;16.746;2024-03-02T03:05:03;98439.16;;;8.59;81.14
37200;BME280;23096;50.892;16.746;2024-03-02T03:07:29;98440.13;;;8.55;81.25
37200;BME280;23096;50.892;16.746;2024-03-02T03:09:55;98442.80;;;8.53;81.21
37200;BME280;23096;50.892;16.746;2024-03-02T03:12:20;98449.14;;;8.53;81.20
37200;BME280;23096;50.892;16.746;2024-03-02T03:14:46;98437.87;;;8.52;81.29
37200;BME280;23096;50.892;16.746;2024-03-02T03:17:11;98437.91;;;8.55;81.40
37200;BME280;23096;50.892;16.746;2024-03-02T03:19:38;98439.42;;;8.56;81.34
37200;BME280;23096;50.892;16.746;2024-03-02T03:22:04;98448.87;;;8.55;81.29
37200;BME280;23096;50.892;16.746;2024-03-02T03:24:29;98459.11;;;8.56;81.37
37200;BME280;23096;50.892;16.746;2024-03-02T03:26:55;98461.52;;;8.55;81.38
37200;BME280;23096;50.892;16.746;2024-03-02T03:29:20;98459.64;;;8.55;81.39
37200;BME280;23096;50.892;16.746;2024-03-02T03:31:46;98459.32;;;8.55;81.39
37200;BME280;23096;50.892;16.746;2024-03-02T03:34:11;98459.91;;;8.53;81.34
37200;BME280;23096;50.892;16.746;2024-03-02T03:36:41;98456.06;;;8.50;81.32
37200;BME280;23096;50.892;16.746;2024-03-02T03:39:07;98455.69;;;8.46;81.25
37200;BME280;23096;50.892;16.746;2024-03-02T03:41:32;98456.20;;;8.41;81.21
37200;BME280;23096;50.892;16.746;2024-03-02T03:43:58;98457.95;;;8.40;81.46
37200;BME280;23096;50.892;16.746;2024-03-02T03:46:23;98458.25;;;8.41;81.59
37200;BME280;23096;50.892;16.746;2024-03-02T03:48:49;98458.04;;;8.43;81.50
37200;BME280;23096;50.892;16.746;2024-03-02T03:51:14;98454.06;;;8.44;81.58
37200;BME280;23096;50.892;16.746;2024-03-02T03:53:40;98457.98;;;8.45;81.50
37200;BME280;23096;50.892;16.746;2024-03-02T03:56:05;98460.36;;;8.45;81.70
37200;BME280;23096;50.892;16.746;2024-03-02T03:58:31;98457.48;;;8.44;81.57
37200;BME280;23096;50.892;16.746;2024-03-02T04:00:57;98453.91;;;8.43;81.69
37200;BME280;23096;50.892;16.746;2024-03-02T04:03:22;98458.18;;;8.43;81.64
37200;BME280;23096;50.892;16.746;2024-03-02T04:05:48;98456.36;;;8.41;81.56
37200;BME280;23096;50.892;16.746;2024-03-02T04:08:13;98453.98;;;8.40;81.64
37200;BME280;23096;50.892;16.746;2024-03-02T04:10:39;98453.72;;;8.38;81.73
37200;BME280;23096;50.892;16.746;2024-03-02T04:13:06;98449.02;;;8.36;81.64
37200;BME280;23096;50.892;16.746;2024-03-02T04:15:32;98456.79;;;8.34;81.71
37200;BME280;23096;50.892;16.746;2024-03-02T04:17:58;98467.14;;;8.36;81.79
37200;BME280;23096;50.892;16.746;2024-03-02T04:20:23;98467.10;;;8.37;81.84
37200;BME280;23096;50.892;16.746;2024-03-02T04:22:49;98466.94;;;8.37;81.77
37200;BME280;23096;50.892;16.746;2024-03-02T04:25:14;98472.05;;;8.37;81.74
37200;BME280;23096;50.892;16.746;2024-03-02T04:27:41;98477.27;;;8.35;81.77
37200;BME280;23096;50.892;16.746;2024-03-02T04:30:06;98482.08;;;8.35;81.81
37200;BME280;23096;50.892;16.746;2024-03-02T04:32:32;98483.90;;;8.31;81.72
37200;BME280;23096;50.892;16.746;2024-03-02T04:34:58;98484.91;;;8.27;81.78
37200;BME280;23096;50.892;16.746;2024-03-02T04:37:23;98489.51;;;8.23;81.83
37200;BME280;23096;50.892;16.746;2024-03-02T04:39:49;98482.89;;;8.21;81.83
37200;BME280;23096;50.892;16.746;2024-03-02T04:42:14;98481.10;;;8.18;81.80
37200;BME280;23096;50.892;16.746;2024-03-02T04:44:40;98479.56;;;8.18;81.85
37200;BME280;23096;50.892;16.746;2024-03-02T04:47:05;98485.20;;;8.18;81.83
37200;BME280;23096;50.892;16.746;2024-03-02T04:49:31;98485.73;;;8.18;81.83
37200;BME280;23096;50.892;16.746;2024-03-02T04:51:56;98491.24;;;8.17;81.81
37200;BME280;23096;50.892;16.746;2024-03-02T04:54:22;98490.38;;;8.18;81.97
37200;BME280;23096;50.892;16.746;2024-03-02T04:56:48;98494.99;;;8.17;81.92
37200;BME280;23096;50.892;16.746;2024-03-02T04:59:17;98499.73;;;8.14;81.73
37200;BME280;23096;50.892;16.746;2024-03-02T05:01:44;98498.35;;;8.09;81.73
37200;BME280;23096;50.892;16.746;2024-03-02T05:04:09;98498.37;;;8.03;81.66
37200;BME280;23096;50.892;16.746;2024-03-02T05:06:40;98501.31;;;7.97;81.64
37200;BME280;23096;50.892;16.746;2024-03-02T05:09:07;98500.94;;;7.93;81.71
37200;BME280;23096;50.892;16.746;2024-03-02T05:11:32;98498.83;;;7.89;81.71
37200;BME280;23096;50.892;16.746;2024-03-02T05:14:04;98500.09;;;7.87;81.77
37200;BME280;23096;50.892;16.746;2024-03-02T05:16:35;98506.64;;;7.85;81.72
37200;BME280;23096;50.892;16.746;2024-03-02T05:19:01;98511.02;;;7.77;81.63
37200;BME280;23096;50.892;16.746;2024-03-02T05:21:26;98507.86;;;7.75;81.79
37200;BME280;23096;50.892;16.746;2024-03-02T05:23:52;98507.52;;;7.69;81.68
37200;BME280;23096;50.892;16.746;2024-03-02T05:26:17;98519.23;;;7.66;81.68
37200;BME280;23096;50.892;16.746;2024-03-02T05:28:43;98520.92;;;7.66;81.82
37200;BME280;23096;50.892;16.746;2024-03-02T05:31:15;98525.14;;;7.69;81.89
37200;BME280;23096;50.892;16.746;2024-03-02T05:33:40;98527.91;;;7.67;81.77
37200;BME280;23096;50.892;16.746;2024-03-02T05:36:06;98532.05;;;7.66;81.84
37200;BME280;23096;50.892;16.746;2024-03-02T05:38:34;98538.73;;;7.66;81.84
37200;BME280;23096;50.892;16.746;2024-03-02T05:41:00;98536.31;;;7.66;81.92
37200;BME280;23096;50.892;16.746;2024-03-02T05:43:26;98531.83;;;7.68;81.94
37200;BME280;23096;50.892;16.746;2024-03-02T05:45:51;98528.90;;;7.68;81.97
37200;BME280;23096;50.892;16.746;2024-03-02T05:48:17;98526.03;;;7.67;81.86
37200;BME280;23096;50.892;16.746;2024-03-02T05:50:43;98529.47;;;7.67;81.87
37200;BME280;23096;50.892;16.746;2024-03-02T05:53:08;98539.58;;;7.66;81.90
37200;BME280;23096;50.892;16.746;2024-03-02T05:55:34;98541.94;;;7.67;81.93
37200;BME280;23096;50.892;16.746;2024-03-02T05:58:00;98543.84;;;7.67;81.87
37200;BME280;23096;50.892;16.746;2024-03-02T06:00:31;98551.51;;;7.67;81.92
37200;BME280;23096;50.892;16.746;2024-03-02T06:02:57;98552.55;;;7.66;81.92
37200;BME280;23096;50.892;16.746;2024-03-02T06:05:23;98550.71;;;7.65;81.99
37200;BME280;23096;50.892;16.746;2024-03-02T06:07:49;98550.20;;;7.65;81.88
37200;BME280;23096;50.892;16.746;2024-03-02T06:10:14;98546.08;;;7.61;81.83
37200;BME280;23096;50.892;16.746;2024-03-02T06:12:40;98549.69;;;7.60;81.84
37200;BME280;23096;50.892;16.746;2024-03-02T06:15:06;98548.52;;;7.59;81.89
37200;BME280;23096;50.892;16.746;2024-03-02T06:17:32;98554.33;;;7.59;81.97
37200;BME280;23096;50.892;16.746;2024-03-02T06:19:57;98555.64;;;7.61;81.96
37200;BME280;23096;50.892;16.746;2024-03-02T06:22:23;98559.14;;;7.63;82.01
37200;BME280;23096;50.892;16.746;2024-03-02T06:24:50;98557.72;;;7.65;82.09
37200;BME280;23096;50.892;16.746;2024-03-02T06:27:16;98555.13;;;7.66;81.96
37200;BME280;23096;50.892;16.746;2024-03-02T06:29:42;98559.25;;;7.65;81.94
37200;BME280;23096;50.892;16.746;2024-03-02T06:32:07;98564.43;;;7.64;81.97
37200;BME280;23096;50.892;16.746;2024-03-02T06:34:33;98568.84;;;7.65;82.06
37200;BME280;23096;50.892;16.746;2024-03-02T06:36:58;98574.77;;;7.67;82.05
37200;BME280;23096;50.892;16.746;2024-03-02T06:39:24;98576.41;;;7.69;82.06
37200;BME280;23096;50.892;16.746;2024-03-02T06:41:51;98580.12;;;7.71;82.08
37200;BME280;23096;50.892;16.746;2024-03-02T06:44:17;98582.30;;;7.72;82.01
37200;BME280;23096;50.892;16.746;2024-03-02T06:46:42;98583.30;;;7.73;82.11
37200;BME280;23096;50.892;16.746;2024-03-02T06:49:08;98577.66;;;7.73;82.07
37200;BME280;23096;50.892;16.746;2024-03-02T06:51:36;98578.13;;;7.74;82.03
37200;BME280;23096;50.892;16.746;2024-03-02T06:54:01;98578.17;;;7.78;82.15
37200;BME280;23096;50.892;16.746;2024-03-02T06:56:27;98578.46;;;7.80;82.15
37200;BME280;23096;50.892;16.746;2024-03-02T06:58:52;98576.15;;;7.83;82.15
37200;BME280;23096;50.892;16.746;2024-03-02T07:01:18;98579.71;;;7.84;82.13
37200;BME280;23096;50.892;16.746;2024-03-02T07:03:45;98578.36;;;7.83;82.11
37200;BME280;23096;50.892;16.746;2024-03-02T07:06:11;98573.72;;;7.79;81.98
37200;BME280;23096;50.892;16.746;2024-03-02T07:08:36;98577.54;;;7.77;82.04
37200;BME280;23096;50.892;16.746;2024-03-02T07:11:07;98580.26;;;7.78;82.21
37200;BME280;23096;50.892;16.746;2024-03-02T07:13:33;98578.09;;;7.81;82.25
37200;BME280;23096;50.892;16.746;2024-03-02T07:15:58;98577.82;;;7.84;82.28
37200;BME280;23096;50.892;16.746;2024-03-02T07:18:36;98578.10;;;7.86;82.34
37200;BME280;23096;50.892;16.746;2024-03-02T07:21:10;98583.02;;;7.93;82.42
37200;BME280;23096;50.892;16.746;2024-03-02T07:23:36;98586.10;;;7.99;82.47
37200;BME280;23096;50.892;16.746;2024-03-02T07:26:02;98585.56;;;8.05;82.59
37200;BME280;23096;50.892;16.746;2024-03-02T07:28:28;98581.77;;;8.11;82.68
37200;BME280;23096;50.892;16.746;2024-03-02T07:31:01;98579.45;;;8.19;82.63
37200;BME280;23096;50.892;16.746;2024-03-02T07:33:26;98577.20;;;8.25;82.69
37200;BME280;23096;50.892;16.746;2024-03-02T07:35:53;98584.20;;;8.31;82.72
37200;BME280;23096;50.892;16.746;2024-03-02T07:38:19;98584.33;;;8.37;82.78
37200;BME280;23096;50.892;16.746;2024-03-02T07:40:45;98588.78;;;8.43;82.79
37200;BME280;23096;50.892;16.746;2024-03-02T07:43:10;98590.79;;;8.50;82.82
37200;BME280;23096;50.892;16.746;2024-03-02T07:45:36;98593.86;;;8.55;82.88
37200;BME280;23096;50.892;16.746;2024-03-02T07:48:02;98600.86;;;8.61;82.82
37200;BME280;23096;50.892;16.746;2024-03-02T07:50:29;98604.47;;;8.66;82.85
37200;BME280;23096;50.892;16.746;2024-03-02T07:52:55;98600.58;;;8.69;82.95
37200;BME280;23096;50.892;16.746;2024-03-02T07:55:21;98596.54;;;8.72;82.93
37200;BME280;23096;50.892;16.746;2024-03-02T07:57:49;98601.38;;;8.76;82.93
37200;BME280;23096;50.892;16.746;2024-03-02T08:00:14;98600.22;;;8.79;83.01
37200;BME280;23096;50.892;16.746;2024-03-02T08:02:40;98595.14;;;8.83;82.98
37200;BME280;23096;50.892;16.746;2024-03-02T08:05:08;98596.18;;;8.87;83.09
37200;BME280;23096;50.892;16.746;2024-03-02T08:07:34;98596.77;;;8.90;83.06
37200;BME280;23096;50.892;16.746;2024-03-02T08:09:59;98597.55;;;8.92;82.98
37200;BME280;23096;50.892;16.746;2024-03-02T08:12:26;98598.68;;;8.94;83.00
37200;BME280;23096;50.892;16.746;2024-03-02T08:14:51;98600.75;;;8.98;83.03
37200;BME280;23096;50.892;16.746;2024-03-02T08:17:17;98599.06;;;9.02;83.10
37200;BME280;23096;50.892;16.746;2024-03-02T08:19:43;98602.70;;;9.07;83.08
37200;BME280;23096;50.892;16.746;2024-03-02T08:22:09;98604.60;;;9.11;83.16
37200;BME280;23096;50.892;16.746;2024-03-02T08:24:35;98604.20;;;9.17;83.17
37200;BME280;23096;50.892;16.746;2024-03-02T08:27:02;98606.88;;;9.24;83.26
37200;BME280;23096;50.892;16.746;2024-03-02T08:29:27;98610.21;;;9.30;83.26
37200;BME280;23096;50.892;16.746;2024-03-02T08:31:54;98609.52;;;9.36;83.34
37200;BME280;23096;50.892;16.746;2024-03-02T08:34:19;98610.69;;;9.41;83.38
37200;BME280;23096;50.892;16.746;2024-03-02T08:36:46;98611.33;;;9.47;83.30
37200;BME280;23096;50.892;16.746;2024-03-02T08:39:12;98609.67;;;9.54;83.32
37200;BME280;23096;50.892;16.746;2024-03-02T08:41:46;98606.33;;;9.61;83.50
37200;BME280;23096;50.892;16.746;2024-03-02T08:44:13;98608.58;;;9.70;83.45
37200;BME280;23096;50.892;16.746;2024-03-02T08:46:40;98610.84;;;9.78;83.54
37200;BME280;23096;50.892;16.746;2024-03-02T08:49:06;98608.98;;;9.86;83.61
37200;BME280;23096;50.892;16.746;2024-03-02T08:51:32;98606.79;;;9.94;83.51
37200;BME280;23096;50.892;16.746;2024-03-02T08:53:58;98607.52;;;10.02;83.58
37200;BME280;23096;50.892;16.746;2024-03-02T08:56:24;98605.86;;;10.09;83.49
37200;BME280;23096;50.892;16.746;2024-03-02T08:58:51;98606.05;;;10.17;83.53
37200;BME280;23096;50.892;16.746;2024-03-02T09:01:18;98603.18;;;10.24;83.66
37200;BME280;23096;50.892;16.746;2024-03-02T09:03:45;98600.91;;;10.34;83.70
37200;BME280;23096;50.892;16.746;2024-03-02T09:06:14;98603.29;;;10.43;83.60
37200;BME280;23096;50.892;16.746;2024-03-02T09:08:42;98602.73;;;10.53;83.66
37200;BME280;23096;50.892;16.746;2024-03-02T09:11:09;98598.80;;;10.61;83.62
37200;BME280;23096;50.892;16.746;2024-03-02T09:13:35;98600.21;;;10.68;83.48
37200;BME280;23096;50.892;16.746;2024-03-02T09:16:01;98596.79;;;10.76;83.46
37200;BME280;23096;50.892;16.746;2024-03-02T09:18:26;98597.46;;;10.84;83.49
37200;BME280;23096;50.892;16.746;2024-03-02T09:20:52;98595.54;;;10.93;83.50
37200;BME280;23096;50.892;16.746;2024-03-02T09:23:18;98595.70;;;11.01;83.45
37200;BME280;23096;50.892;16.746;2024-03-02T09:25:43;98595.59;;;11.07;83.32
37200;BME280;23096;50.892;16.746;2024-03-02T09:28:09;98593.02;;;11.15;83.24
37200;BME280;23096;50.892;16.746;2024-03-02T09:30:35;98591.45;;;11.23;83.19
37200;BME280;23096;50.892;16.746;2024-03-02T09:33:00;98596.35;;;11.29;83.19
37200;BME280;23096;50.892;16.746;2024-03-02T09:35:25;98595.66;;;11.33;82.99
37200;BME280;23096;50.892;16.746;2024-03-02T09:37:51;98594.08;;;11.38;83.11
37200;BME280;23096;50.892;16.746;2024-03-02T09:40:16;98597.42;;;11.43;82.91
37200;BME280;23096;50.892;16.746;2024-03-02T09:42:42;98596.31;;;11.48;82.74
37200;BME280;23096;50.892;16.746;2024-03-02T09:45:09;98600.68;;;11.51;82.80
37200;BME280;23096;50.892;16.746;2024-03-02T09:47:35;98597.44;;;11.54;82.63
37200;BME280;23096;50.892;16.746;2024-03-02T09:50:01;98600.77;;;11.57;82.60
37200;BME280;23096;50.892;16.746;2024-03-02T09:52:26;98600.60;;;11.57;82.49
37200;BME280;23096;50.892;16.746;2024-03-02T09:54:52;98595.65;;;11.55;82.36
37200;BME280;23096;50.892;16.746;2024-03-02T09:57:18;98597.38;;;11.56;82.30
37200;BME280;23096;50.892;16.746;2024-03-02T09:59:43;98598.71;;;11.56;82.24
37200;BME280;23096;50.892;16.746;2024-03-02T10:02:11;98597.42;;;11.58;82.16
37200;BME280;23096;50.892;16.746;2024-03-02T10:04:36;98600.63;;;11.60;82.13
37200;BME280;23096;50.892;16.746;2024-03-02T10:07:12;98598.31;;;11.61;81.93
37200;BME280;23096;50.892;16.746;2024-03-02T10:09:39;98597.67;;;11.64;82.03
37200;BME280;23096;50.892;16.746;2024-03-02T10:12:06;98598.39;;;11.67;81.86
37200;BME280;23096;50.892;16.746;2024-03-02T10:14:32;98592.69;;;11.71;81.88
37200;BME280;23096;50.892;16.746;2024-03-02T10:17:08;98590.44;;;11.76;81.97
37200;BME280;23096;50.892;16.746;2024-03-02T10:19:35;98592.65;;;11.80;81.76
37200;BME280;23096;50.892;16.746;2024-03-02T10:22:03;98591.84;;;11.82;81.69
37200;BME280;23096;50.892;16.746;2024-03-02T10:24:36;98595.68;;;11.85;81.82
37200;BME280;23096;50.892;16.746;2024-03-02T10:27:07;98591.73;;;11.88;81.71
37200;BME280;23096;50.892;16.746;2024-03-02T10:29:36;98592.58;;;11.93;81.70
37200;BME280;23096;50.892;16.746;2024-03-02T10:32:02;98590.31;;;11.97;81.51
37200;BME280;23096;50.892;16.746;2024-03-02T10:34:28;98587.36;;;12.01;81.53
37200;BME280;23096;50.892;16.746;2024-03-02T10:36:54;98586.39;;;12.07;81.48
37200;BME280;23096;50.892;16.746;2024-03-02T10:39:20;98583.75;;;12.12;81.56
37200;BME280;23096;50.892;16.746;2024-03-02T10:41:47;98583.61;;;12.15;81.37
37200;BME280;23096;50.892;16.746;2024-03-02T10:44:14;98581.73;;;12.18;81.27
37200;BME280;23096;50.892;16.746;2024-03-02T10:46:39;98581.70;;;12.22;81.23
37200;BME280;23096;50.892;16.746;2024-03-02T10:49:05;98578.27;;;12.25;81.27
37200;BME280;23096;50.892;16.746;2024-03-02T10:51:33;98575.33;;;12.29;81.19
37200;BME280;23096;50.892;16.746;2024-03-02T10:53:59;98570.66;;;12.33;80.99
37200;BME280;23096;50.892;16.746;2024-03-02T10:56:42;98569.96;;;12.37;80.85
37200;BME280;23096;50.892;16.746;2024-03-02T10:59:33;98571.94;;;12.42;80.72
37200;BME280;23096;50.892;16.746;2024-03-02T11:02:00;98570.38;;;12.45;80.57
37200;BME280;23096;50.892;16.746;2024-03-02T11:04:27;98571.48;;;12.48;80.37
37200;BME280;23096;50.892;16.746;2024-03-02T11:07:00;98570.86;;;12.50;80.31
37200;BME280;23096;50.892;16.746;2024-03-02T11:09:29;98573.41;;;12.50;80.28
37200;BME280;23096;50.892;16.746;2024-03-02T11:12:22;98570.11;;;12.51;80.05
37200;BME280;23096;50.892;16.746;2024-03-02T11:14:48;98571.69;;;12.54;79.93
37200;BME280;23096;50.892;16.746;2024-03-02T11:17:18;98571.21;;;12.56;79.81
37200;BME280;23096;50.892;16.746;2024-03-02T11:19:44;98564.77;;;12.58;79.59
37200;BME280;23096;50.892;16.746;2024-03-02T11:22:10;98565.58;;;12.59;79.47
37200;BME280;23096;50.892;16.746;2024-03-02T11:24:36;98573.02;;;12.61;79.26
37200;BME280;23096;50.892;16.746;2024-03-02T11:27:04;98566.39;;;12.63;79.30
37200;BME280;23096;50.892;16.746;2024-03-02T11:32:14;98558.85;;;12.66;78.98
37200;BME280;23096;50.892;16.746;2024-03-02T11:34:46;98550.28;;;12.68;78.93
37200;BME280;23096;50.892;16.746;2024-03-02T11:37:13;98550.73;;;12.69;78.74
37200;BME280;23096;50.892;16.746;2024-03-02T11:39:40;98548.27;;;12.70;78.71
37200;BME280;23096;50.892;16.746;2024-03-02T11:42:06;98548.44;;;12.70;78.40
37200;BME280;23096;50.892;16.746;2024-03-02T11:44:35;98545.87;;;12.70;78.35
37200;BME280;23096;50.892;16.746;2024-03-02T11:47:02;98546.67;;;12.71;78.17
37200;BME280;23096;50.892;16.746;2024-03-02T11:49:41;98547.64;;;12.73;78.20
37200;BME280;23096;50.892;16.746;2024-03-02T11:52:09;98552.40;;;12.74;78.08
37200;BME280;23096;50.892;16.746;2024-03-02T11:54:40;98556.27;;;12.76;78.00
37200;BME280;23096;50.892;16.746;2024-03-02T11:57:07;98561.80;;;12.79;77.93
37200;BME280;23096;50.892;16.746;2024-03-02T11:59:33;98565.13;;;12.81;77.89
37200;BME280;23096;50.892;16.746;2024-03-02T12:01:59;98565.69;;;12.83;77.53
37200;BME280;23096;50.892;16.746;2024-03-02T12:04:25;98564.56;;;12.85;77.56
37200;BME280;23096;50.892;16.746;2024-03-02T12:07:01;98569.52;;;12.86;77.35
37200;BME280;23096;50.892;16.746;2024-03-02T12:09:27;98570.39;;;12.86;77.28
37200;BME280;23096;50.892;16.746;2024-03-02T12:12:07;98564.31;;;12.87;77.33
37200;BME280;23096;50.892;16.746;2024-03-02T12:14:34;98565.23;;;12.89;77.12
37200;BME280;23096;50.892;16.746;2024-03-02T12:17:00;98561.88;;;12.91;77.04
37200;BME280;23096;50.892;16.746;2024-03-02T12:19:27;98558.86;;;12.92;77.00
37200;BME280;23096;50.892;16.746;2024-03-02T12:21:53;98554.10;;;12.94;76.93
37200;BME280;23096;50.892;16.746;2024-03-02T12:24:21;98556.35;;;12.97;76.91
37200;BME280;23096;50.892;16.746;2024-03-02T12:26:47;98557.96;;;13.00;76.82
37200;BME280;23096;50.892;16.746;2024-03-02T12:29:13;98556.15;;;13.01;76.72
37200;BME280;23096;50.892;16.746;2024-03-02T12:31:41;98553.58;;;13.04;76.76
37200;BME280;23096;50.892;16.746;2024-03-02T12:34:07;98554.39;;;13.09;76.58
37200;BME280;23096;50.892;16.746;2024-03-02T12:36:39;98555.42;;;13.12;76.56
37200;BME280;23096;50.892;16.746;2024-03-02T12:39:10;98553.50;;;13.15;76.44
37200;BME280;23096;50.892;16.746;2024-03-02T13:03:08;98550.36;;;13.39;75.93
37200;BME280;23096;50.892;16.746;2024-03-02T13:05:34;98550.92;;;13.41;76.07
37200;BME280;23096;50.892;16.746;2024-03-02T13:08:00;98548.95;;;13.43;75.94
37200;BME280;23096;50.892;16.746;2024-03-02T13:10:28;98549.82;;;13.46;76.02
37200;BME280;23096;50.892;16.746;2024-03-02T13:12:53;98548.48;;;13.49;75.87
37200;BME280;23096;50.892;16.746;2024-03-02T13:18:49;98551.38;;;13.52;75.75
37200;BME280;23096;50.892;16.746;2024-03-02T13:21:14;98546.08;;;13.54;75.70
37200;BME280;23096;50.892;16.746;2024-03-02T13:23:40;98543.56;;;13.56;75.56
37200;BME280;23096;50.892;16.746;2024-03-02T13:26:06;98545.25;;;13.57;75.50
37200;BME280;23096;50.892;16.746;2024-03-02T13:28:32;98549.45;;;13.59;75.60